Kindersley Airport, Saskatchewan

Past 24 Hour Conditions

This table is a summary of hourly weather conditions for the past 24 hours. This summary includes the following parameters: temperature, humidity, dew point, wind speed and direction, air pressure, visibility and/or wind chill and humidex.
Date / Time
(CST)
Conditions Temp (°F) Humidity (%) Dew Point (°F) Wind (mph) Pressure (inches) Visibility (miles)
01 September 2014
8:00 Mainly Sunny 45 87 41 SSW 3 29.9 15
7:00 Mainly Sunny 41 87 37 SW 4 29.9 15
6:00 Clear 39   92 37 S 3 29.9 15
5:00 Clear 39   93 37 S 3 29.8 15
4:00 Clear 41 91 39 WSW 6 29.8 15
3:00 Clear 41 90 39 SW 4 29.8 15
2:00 Clear 45 84 40 W 3 29.8 15
1:00 Clear 45 84 40 SSW 5 29.8 15
00:00 Clear 45 85 41 SSW 6 29.8 15
31 August 2014
23:00 Clear 47 80 41 SW 2 29.8 15
22:00 Clear 53 63 41 WNW 5 29.8 15
21:00 Mainly Clear 55 59 41 NW 7 29.8 15
20:00 Mainly Sunny 60 46 39 NW 5 29.8 15
19:00 Mainly Sunny 66 36 39 NW 11 gust 19 29.8 15
18:00 Mainly Sunny 67 37 41 WNW 12 gust 21 29.7 15
17:00 Mainly Sunny 69   34 39 NW 11 gust 24 29.7 15
16:00 Partly Cloudy 69   35 40 WNW 15 29.7 15
15:00 Partly Cloudy 67 41 43 WNW 11 gust 18 29.7 15
14:00 Partly Cloudy 67 39 42 W 9 29.8 15
13:00 Partly Cloudy 68 40 43 WNW 13 gust 19 29.7 15
12:00 Partly Cloudy 66 43 43 WNW 10 gust 17 29.8 15
11:00 Mainly Sunny 64 49 45 W 7 29.7 14
10:00 Mainly Sunny 60 56 45 W 6 29.7 14
9:00 Mainly Sunny 56 73 47 NW 5 29.8 15
8:00 Mainly Sunny 49 88 45 WSW 3 29.7 15
N/A
Not available
 ↑ 
Highest temperature
 ↓ 
Lowest temperature

If you require additional historical weather information, please visit Climate Data Online.